sensor_id;sensor_type;location;lat;lon;timestamp;P1;durP1;ratioP1;P2;durP2;ratioP2
65971;SDS011;52726;48.852;9.152;2024-03-17T00:00:20;6.72;;;3.35;;
65971;SDS011;52726;48.852;9.152;2024-03-17T00:02:46;4.78;;;3.53;;
65971;SDS011;52726;48.852;9.152;2024-03-17T00:05:12;3.63;;;2.88;;
65971;SDS011;52726;48.852;9.152;2024-03-17T00:07:38;12.52;;;4.13;;
65971;SDS011;52726;48.852;9.152;2024-03-17T00:10:06;4.85;;;2.88;;
65971;SDS011;52726;48.852;9.152;2024-03-17T00:12:32;5.03;;;3.60;;
65971;SDS011;52726;48.852;9.152;2024-03-17T00:14:58;5.53;;;3.42;;
65971;SDS011;52726;48.852;9.152;2024-03-17T00:17:23;5.05;;;3.13;;
65971;SDS011;52726;48.852;9.152;2024-03-17T00:19:48;4.30;;;3.30;;
65971;SDS011;52726;48.852;9.152;2024-03-17T00:22:14;4.43;;;3.45;;
65971;SDS011;52726;48.852;9.152;2024-03-17T00:24:40;4.22;;;2.65;;
65971;SDS011;52726;48.852;9.152;2024-03-17T00:27:05;5.07;;;3.15;;
65971;SDS011;52726;48.852;9.152;2024-03-17T00:29:31;5.50;;;3.55;;
65971;SDS011;52726;48.852;9.152;2024-03-17T00:31:57;5.32;;;3.13;;
65971;SDS011;52726;48.852;9.152;2024-03-17T00:34:23;4.75;;;3.28;;
65971;SDS011;52726;48.852;9.152;2024-03-17T00:36:49;4.78;;;3.15;;
65971;SDS011;52726;48.852;9.152;2024-03-17T00:39:14;4.20;;;3.03;;
65971;SDS011;52726;48.852;9.152;2024-03-17T00:41:40;7.15;;;3.22;;
65971;SDS011;52726;48.852;9.152;2024-03-17T00:44:05;5.15;;;3.50;;
65971;SDS011;52726;48.852;9.152;2024-03-17T00:46:31;4.32;;;3.13;;
65971;SDS011;52726;48.852;9.152;2024-03-17T00:48:57;4.68;;;3.08;;
65971;SDS011;52726;48.852;9.152;2024-03-17T00:51:23;3.97;;;2.78;;
65971;SDS011;52726;48.852;9.152;2024-03-17T00:53:48;10.40;;;3.10;;
65971;SDS011;52726;48.852;9.152;2024-03-17T00:56:14;7.85;;;4.18;;
65971;SDS011;52726;48.852;9.152;2024-03-17T00:58:39;6.05;;;3.83;;
65971;SDS011;52726;48.852;9.152;2024-03-17T01:01:05;3.05;;;2.40;;
65971;SDS011;52726;48.852;9.152;2024-03-17T01:03:30;4.53;;;3.33;;
65971;SDS011;52726;48.852;9.152;2024-03-17T01:05:56;6.93;;;3.90;;
65971;SDS011;52726;48.852;9.152;2024-03-17T01:08:21;3.95;;;3.25;;
65971;SDS011;52726;48.852;9.152;2024-03-17T01:10:47;4.72;;;3.33;;
65971;SDS011;52726;48.852;9.152;2024-03-17T01:13:16;5.90;;;3.78;;
65971;SDS011;52726;48.852;9.152;2024-03-17T01:15:42;4.20;;;3.25;;
65971;SDS011;52726;48.852;9.152;2024-03-17T01:18:08;5.03;;;2.80;;
65971;SDS011;52726;48.852;9.152;2024-03-17T01:20:36;4.25;;;3.03;;
65971;SDS011;52726;48.852;9.152;2024-03-17T01:23:03;5.20;;;3.00;;
65971;SDS011;52726;48.852;9.152;2024-03-17T01:25:29;5.93;;;3.65;;
65971;SDS011;52726;48.852;9.152;2024-03-17T01:27:55;6.22;;;3.20;;
65971;SDS011;52726;48.852;9.152;2024-03-17T01:30:22;5.35;;;3.42;;
65971;SDS011;52726;48.852;9.152;2024-03-17T01:32:48;9.50;;;4.38;;
65971;SDS011;52726;48.852;9.152;2024-03-17T01:35:16;7.05;;;4.18;;
65971;SDS011;52726;48.852;9.152;2024-03-17T01:37:42;5.97;;;3.80;;
65971;SDS011;52726;48.852;9.152;2024-03-17T01:40:08;6.15;;;3.53;;
65971;SDS011;52726;48.852;9.152;2024-03-17T01:42:35;5.80;;;3.90;;
65971;SDS011;52726;48.852;9.152;2024-03-17T01:45:01;7.40;;;4.18;;
65971;SDS011;52726;48.852;9.152;2024-03-17T01:47:49;5.32;;;4.20;;
65971;SDS011;52726;48.852;9.152;2024-03-17T01:50:14;5.32;;;3.83;;
65971;SDS011;52726;48.852;9.152;2024-03-17T01:52:43;6.85;;;3.65;;
65971;SDS011;52726;48.852;9.152;2024-03-17T01:55:11;6.15;;;3.92;;
65971;SDS011;52726;48.852;9.152;2024-03-17T01:57:36;5.30;;;3.53;;
65971;SDS011;52726;48.852;9.152;2024-03-17T02:00:02;5.28;;;3.83;;
65971;SDS011;52726;48.852;9.152;2024-03-17T02:02:29;10.75;;;4.78;;
65971;SDS011;52726;48.852;9.152;2024-03-17T02:04:55;12.90;;;3.95;;
65971;SDS011;52726;48.852;9.152;2024-03-17T02:07:20;10.05;;;3.83;;
65971;SDS011;52726;48.852;9.152;2024-03-17T02:09:45;5.30;;;3.47;;
65971;SDS011;52726;48.852;9.152;2024-03-17T02:12:11;4.97;;;3.45;;
65971;SDS011;52726;48.852;9.152;2024-03-17T02:14:36;5.93;;;3.38;;
65971;SDS011;52726;48.852;9.152;2024-03-17T02:17:02;5.50;;;3.65;;
65971;SDS011;52726;48.852;9.152;2024-03-17T02:19:27;6.63;;;3.35;;
65971;SDS011;52726;48.852;9.152;2024-03-17T02:21:53;5.95;;;3.60;;
65971;SDS011;52726;48.852;9.152;2024-03-17T02:24:18;10.05;;;3.70;;
65971;SDS011;52726;48.852;9.152;2024-03-17T02:26:43;8.18;;;3.88;;
65971;SDS011;52726;48.852;9.152;2024-03-17T02:29:09;9.65;;;3.90;;
65971;SDS011;52726;48.852;9.152;2024-03-17T02:31:34;7.82;;;4.18;;
65971;SDS011;52726;48.852;9.152;2024-03-17T02:34:00;6.43;;;3.80;;
65971;SDS011;52726;48.852;9.152;2024-03-17T02:36:25;5.78;;;3.63;;
65971;SDS011;52726;48.852;9.152;2024-03-17T02:38:50;7.57;;;3.53;;
65971;SDS011;52726;48.852;9.152;2024-03-17T02:41:34;5.20;;;3.20;;
65971;SDS011;52726;48.852;9.152;2024-03-17T02:43:59;5.35;;;3.38;;
65971;SDS011;52726;48.852;9.152;2024-03-17T02:46:25;6.07;;;3.60;;
65971;SDS011;52726;48.852;9.152;2024-03-17T02:48:51;6.65;;;4.25;;
65971;SDS011;52726;48.852;9.152;2024-03-17T02:51:18;6.50;;;4.30;;
65971;SDS011;52726;48.852;9.152;2024-03-17T02:53:46;5.90;;;3.38;;
65971;SDS011;52726;48.852;9.152;2024-03-17T02:56:13;6.93;;;4.20;;
65971;SDS011;52726;48.852;9.152;2024-03-17T02:58:41;7.75;;;4.43;;
65971;SDS011;52726;48.852;9.152;2024-03-17T03:01:07;5.03;;;3.67;;
65971;SDS011;52726;48.852;9.152;2024-03-17T03:03:34;10.60;;;4.30;;
65971;SDS011;52726;48.852;9.152;2024-03-17T03:06:00;6.03;;;3.72;;
65971;SDS011;52726;48.852;9.152;2024-03-17T03:08:29;6.07;;;4.05;;
65971;SDS011;52726;48.852;9.152;2024-03-17T03:10:55;13.45;;;4.05;;
65971;SDS011;52726;48.852;9.152;2024-03-17T03:13:20;4.63;;;3.58;;
65971;SDS011;52726;48.852;9.152;2024-03-17T03:15:47;5.55;;;3.45;;
65971;SDS011;52726;48.852;9.152;2024-03-17T03:18:13;6.07;;;4.35;;
65971;SDS011;52726;48.852;9.152;2024-03-17T03:20:38;8.00;;;4.28;;
65971;SDS011;52726;48.852;9.152;2024-03-17T03:23:04;4.90;;;3.45;;
65971;SDS011;52726;48.852;9.152;2024-03-17T03:25:29;5.85;;;4.32;;
65971;SDS011;52726;48.852;9.152;2024-03-17T03:27:54;9.00;;;5.30;;
65971;SDS011;52726;48.852;9.152;2024-03-17T03:30:22;7.10;;;4.55;;
65971;SDS011;52726;48.852;9.152;2024-03-17T03:32:48;5.82;;;3.53;;
65971;SDS011;52726;48.852;9.152;2024-03-17T03:35:14;6.68;;;4.22;;
65971;SDS011;52726;48.852;9.152;2024-03-17T03:37:42;12.32;;;4.47;;
65971;SDS011;52726;48.852;9.152;2024-03-17T03:40:08;7.13;;;4.38;;
65971;SDS011;52726;48.852;9.152;2024-03-17T03:42:45;9.07;;;4.90;;
65971;SDS011;52726;48.852;9.152;2024-03-17T03:45:11;10.10;;;4.90;;
65971;SDS011;52726;48.852;9.152;2024-03-17T03:47:39;6.97;;;4.45;;
65971;SDS011;52726;48.852;9.152;2024-03-17T03:50:12;10.52;;;4.40;;
65971;SDS011;52726;48.852;9.152;2024-03-17T03:52:40;6.85;;;4.10;;
65971;SDS011;52726;48.852;9.152;2024-03-17T03:55:07;6.68;;;3.92;;
65971;SDS011;52726;48.852;9.152;2024-03-17T03:57:35;19.08;;;3.88;;
65971;SDS011;52726;48.852;9.152;2024-03-17T04:00:01;7.05;;;4.20;;
65971;SDS011;52726;48.852;9.152;2024-03-17T04:02:39;6.45;;;4.18;;
65971;SDS011;52726;48.852;9.152;2024-03-17T04:05:05;6.97;;;4.25;;
65971;SDS011;52726;48.852;9.152;2024-03-17T04:07:30;6.90;;;3.30;;
65971;SDS011;52726;48.852;9.152;2024-03-17T04:09:56;5.88;;;3.97;;
65971;SDS011;52726;48.852;9.152;2024-03-17T04:12:22;5.40;;;3.60;;
65971;SDS011;52726;48.852;9.152;2024-03-17T04:14:49;6.85;;;4.28;;
65971;SDS011;52726;48.852;9.152;2024-03-17T04:17:18;8.73;;;4.32;;
65971;SDS011;52726;48.852;9.152;2024-03-17T04:19:46;6.57;;;4.30;;
65971;SDS011;52726;48.852;9.152;2024-03-17T04:22:12;6.80;;;4.00;;
65971;SDS011;52726;48.852;9.152;2024-03-17T04:24:37;8.02;;;4.07;;
65971;SDS011;52726;48.852;9.152;2024-03-17T04:27:03;6.97;;;4.63;;
65971;SDS011;52726;48.852;9.152;2024-03-17T04:29:29;4.82;;;3.33;;
65971;SDS011;52726;48.852;9.152;2024-03-17T04:31:54;6.13;;;3.50;;
65971;SDS011;52726;48.852;9.152;2024-03-17T04:34:20;13.07;;;4.18;;
65971;SDS011;52726;48.852;9.152;2024-03-17T04:36:45;7.35;;;3.92;;
65971;SDS011;52726;48.852;9.152;2024-03-17T04:39:11;9.45;;;3.63;;
65971;SDS011;52726;48.852;9.152;2024-03-17T04:41:37;7.88;;;4.32;;
65971;SDS011;52726;48.852;9.152;2024-03-17T04:44:05;7.28;;;4.25;;
65971;SDS011;52726;48.852;9.152;2024-03-17T04:46:31;5.70;;;3.67;;
65971;SDS011;52726;48.852;9.152;2024-03-17T04:48:57;6.57;;;3.85;;
65971;SDS011;52726;48.852;9.152;2024-03-17T04:51:23;3.50;;;3.15;;
65971;SDS011;52726;48.852;9.152;2024-03-17T04:53:48;4.85;;;3.55;;
65971;SDS011;52726;48.852;9.152;2024-03-17T04:56:13;5.65;;;3.70;;
65971;SDS011;52726;48.852;9.152;2024-03-17T04:58:38;5.38;;;3.55;;
65971;SDS011;52726;48.852;9.152;2024-03-17T05:01:05;4.90;;;3.40;;
65971;SDS011;52726;48.852;9.152;2024-03-17T05:03:32;4.50;;;3.15;;
65971;SDS011;52726;48.852;9.152;2024-03-17T05:05:59;6.10;;;3.92;;
65971;SDS011;52726;48.852;9.152;2024-03-17T05:08:26;5.45;;;3.42;;
65971;SDS011;52726;48.852;9.152;2024-03-17T05:10:55;6.53;;;3.55;;
65971;SDS011;52726;48.852;9.152;2024-03-17T05:13:25;13.50;;;3.65;;
65971;SDS011;52726;48.852;9.152;2024-03-17T05:15:51;4.60;;;3.13;;
65971;SDS011;52726;48.852;9.152;2024-03-17T05:18:17;4.57;;;2.97;;
65971;SDS011;52726;48.852;9.152;2024-03-17T05:20:42;3.92;;;2.80;;
65971;SDS011;52726;48.852;9.152;2024-03-17T05:23:07;7.50;;;3.75;;
65971;SDS011;52726;48.852;9.152;2024-03-17T05:25:32;4.93;;;2.78;;
65971;SDS011;52726;48.852;9.152;2024-03-17T05:28:01;3.58;;;2.70;;
65971;SDS011;52726;48.852;9.152;2024-03-17T05:30:27;3.38;;;2.92;;
65971;SDS011;52726;48.852;9.152;2024-03-17T05:32:52;8.85;;;3.47;;
65971;SDS011;52726;48.852;9.152;2024-03-17T05:35:17;2.00;;;1.83;;
65971;SDS011;52726;48.852;9.152;2024-03-17T05:37:43;3.72;;;2.90;;
65971;SDS011;52726;48.852;9.152;2024-03-17T05:40:09;5.03;;;3.08;;
65971;SDS011;52726;48.852;9.152;2024-03-17T05:42:37;3.67;;;2.83;;
65971;SDS011;52726;48.852;9.152;2024-03-17T05:45:03;4.60;;;2.83;;
65971;SDS011;52726;48.852;9.152;2024-03-17T05:47:28;2.72;;;2.35;;
65971;SDS011;52726;48.852;9.152;2024-03-17T05:49:54;3.47;;;2.55;;
65971;SDS011;52726;48.852;9.152;2024-03-17T05:52:20;3.42;;;2.67;;
65971;SDS011;52726;48.852;9.152;2024-03-17T05:54:46;5.00;;;3.03;;
65971;SDS011;52726;48.852;9.152;2024-03-17T05:57:12;3.55;;;2.60;;
65971;SDS011;52726;48.852;9.152;2024-03-17T05:59:39;4.43;;;3.05;;
65971;SDS011;52726;48.852;9.152;2024-03-17T06:02:04;4.93;;;3.00;;
65971;SDS011;52726;48.852;9.152;2024-03-17T06:04:29;4.25;;;3.00;;
65971;SDS011;52726;48.852;9.152;2024-03-17T06:06:55;6.32;;;2.63;;
65971;SDS011;52726;48.852;9.152;2024-03-17T06:09:20;4.25;;;2.92;;
65971;SDS011;52726;48.852;9.152;2024-03-17T06:11:46;5.30;;;2.78;;
65971;SDS011;52726;48.852;9.152;2024-03-17T06:14:11;5.38;;;3.03;;
65971;SDS011;52726;48.852;9.152;2024-03-17T06:16:37;7.90;;;3.28;;
65971;SDS011;52726;48.852;9.152;2024-03-17T06:19:02;6.28;;;3.58;;
65971;SDS011;52726;48.852;9.152;2024-03-17T06:21:28;4.72;;;2.92;;
65971;SDS011;52726;48.852;9.152;2024-03-17T06:23:53;4.13;;;3.10;;
65971;SDS011;52726;48.852;9.152;2024-03-17T06:26:19;4.00;;;3.28;;
65971;SDS011;52726;48.852;9.152;2024-03-17T06:28:45;5.07;;;3.50;;
65971;SDS011;52726;48.852;9.152;2024-03-17T06:31:11;10.60;;;3.60;;
65971;SDS011;52726;48.852;9.152;2024-03-17T06:33:36;3.60;;;2.75;;
65971;SDS011;52726;48.852;9.152;2024-03-17T06:36:02;8.23;;;2.78;;
65971;SDS011;52726;48.852;9.152;2024-03-17T06:38:31;4.47;;;3.13;;
65971;SDS011;52726;48.852;9.152;2024-03-17T06:40:57;5.15;;;3.10;;
65971;SDS011;52726;48.852;9.152;2024-03-17T06:43:22;7.68;;;3.33;;
65971;SDS011;52726;48.852;9.152;2024-03-17T06:45:54;4.82;;;3.45;;
65971;SDS011;52726;48.852;9.152;2024-03-17T06:48:24;6.20;;;3.90;;
65971;SDS011;52726;48.852;9.152;2024-03-17T06:50:50;10.23;;;3.38;;
65971;SDS011;52726;48.852;9.152;2024-03-17T06:53:17;5.30;;;3.42;;
65971;SDS011;52726;48.852;9.152;2024-03-17T06:55:43;9.68;;;3.60;;
65971;SDS011;52726;48.852;9.152;2024-03-17T06:58:11;4.40;;;3.58;;
65971;SDS011;52726;48.852;9.152;2024-03-17T07:00:36;5.68;;;3.90;;
65971;SDS011;52726;48.852;9.152;2024-03-17T07:03:01;5.60;;;4.07;;
65971;SDS011;52726;48.852;9.152;2024-03-17T07:05:27;4.95;;;3.40;;
65971;SDS011;52726;48.852;9.152;2024-03-17T07:07:55;10.57;;;3.08;;
65971;SDS011;52726;48.852;9.152;2024-03-17T07:10:20;26.17;;;3.83;;
65971;SDS011;52726;48.852;9.152;2024-03-17T07:12:45;5.75;;;3.28;;
65971;SDS011;52726;48.852;9.152;2024-03-17T07:15:11;5.95;;;3.50;;
65971;SDS011;52726;48.852;9.152;2024-03-17T07:17:36;5.43;;;3.70;;
65971;SDS011;52726;48.852;9.152;2024-03-17T07:20:02;3.53;;;2.45;;
65971;SDS011;52726;48.852;9.152;2024-03-17T07:22:28;6.78;;;3.65;;
65971;SDS011;52726;48.852;9.152;2024-03-17T07:24:54;4.20;;;3.00;;
65971;SDS011;52726;48.852;9.152;2024-03-17T07:27:26;5.05;;;3.20;;
65971;SDS011;52726;48.852;9.152;2024-03-17T07:29:52;4.50;;;3.30;;
65971;SDS011;52726;48.852;9.152;2024-03-17T07:32:17;6.30;;;3.33;;
65971;SDS011;52726;48.852;9.152;2024-03-17T07:34:43;3.10;;;2.63;;
65971;SDS011;52726;48.852;9.152;2024-03-17T07:37:08;3.58;;;2.97;;
65971;SDS011;52726;48.852;9.152;2024-03-17T07:39:33;4.78;;;3.08;;
65971;SDS011;52726;48.852;9.152;2024-03-17T07:41:59;4.43;;;3.03;;
65971;SDS011;52726;48.852;9.152;2024-03-17T07:44:26;4.47;;;3.13;;
65971;SDS011;52726;48.852;9.152;2024-03-17T07:46:57;3.40;;;3.05;;
65971;SDS011;52726;48.852;9.152;2024-03-17T07:49:22;4.50;;;3.10;;
65971;SDS011;52726;48.852;9.152;2024-03-17T07:51:47;4.13;;;3.13;;
65971;SDS011;52726;48.852;9.152;2024-03-17T07:54:13;6.28;;;4.10;;
65971;SDS011;52726;48.852;9.152;2024-03-17T07:56:38;4.70;;;3.70;;
65971;SDS011;52726;48.852;9.152;2024-03-17T07:59:04;5.43;;;3.53;;
65971;SDS011;52726;48.852;9.152;2024-03-17T08:01:36;5.60;;;3.63;;
65971;SDS011;52726;48.852;9.152;2024-03-17T08:04:01;5.88;;;4.32;;
65971;SDS011;52726;48.852;9.152;2024-03-17T08:06:27;5.38;;;3.58;;
65971;SDS011;52726;48.852;9.152;2024-03-17T08:08:52;6.30;;;4.43;;
65971;SDS011;52726;48.852;9.152;2024-03-17T08:11:19;8.98;;;4.45;;
65971;SDS011;52726;48.852;9.152;2024-03-17T08:13:44;6.88;;;4.15;;
65971;SDS011;52726;48.852;9.152;2024-03-17T08:16:10;5.45;;;4.25;;
65971;SDS011;52726;48.852;9.152;2024-03-17T08:18:35;6.75;;;4.35;;
65971;SDS011;52726;48.852;9.152;2024-03-17T08:21:01;6.05;;;4.15;;
65971;SDS011;52726;48.852;9.152;2024-03-17T08:23:29;4.82;;;3.75;;
65971;SDS011;52726;48.852;9.152;2024-03-17T08:25:58;6.47;;;4.82;;
65971;SDS011;52726;48.852;9.152;2024-03-17T08:28:25;6.55;;;3.95;;
65971;SDS011;52726;48.852;9.152;2024-03-17T08:30:52;6.90;;;4.60;;
65971;SDS011;52726;48.852;9.152;2024-03-17T08:33:18;6.65;;;4.20;;
65971;SDS011;52726;48.852;9.152;2024-03-17T08:35:52;9.15;;;4.72;;
65971;SDS011;52726;48.852;9.152;2024-03-17T08:38:23;6.75;;;4.65;;
65971;SDS011;52726;48.852;9.152;2024-03-17T08:40:50;7.28;;;4.70;;
65971;SDS011;52726;48.852;9.152;2024-03-17T08:43:16;7.25;;;3.97;;
65971;SDS011;52726;48.852;9.152;2024-03-17T08:45:41;7.53;;;4.97;;
65971;SDS011;52726;48.852;9.152;2024-03-17T08:48:08;6.22;;;4.25;;
65971;SDS011;52726;48.852;9.152;2024-03-17T08:50:34;6.22;;;4.43;;
65971;SDS011;52726;48.852;9.152;2024-03-17T08:52:59;6.90;;;4.25;;
65971;SDS011;52726;48.852;9.152;2024-03-17T08:55:25;8.25;;;4.90;;
65971;SDS011;52726;48.852;9.152;2024-03-17T08:57:50;5.93;;;4.38;;
65971;SDS011;52726;48.852;9.152;2024-03-17T09:00:15;8.48;;;5.00;;
65971;SDS011;52726;48.852;9.152;2024-03-17T09:02:41;6.80;;;4.07;;
65971;SDS011;52726;48.852;9.152;2024-03-17T09:05:06;7.07;;;4.80;;
65971;SDS011;52726;48.852;9.152;2024-03-17T09:07:32;6.40;;;4.13;;
65971;SDS011;52726;48.852;9.152;2024-03-17T09:09:58;7.28;;;4.57;;
65971;SDS011;52726;48.852;9.152;2024-03-17T09:12:24;10.25;;;4.75;;
65971;SDS011;52726;48.852;9.152;2024-03-17T09:14:49;11.63;;;3.95;;
65971;SDS011;52726;48.852;9.152;2024-03-17T09:17:15;5.85;;;3.88;;
65971;SDS011;52726;48.852;9.152;2024-03-17T09:19:40;6.25;;;4.90;;
65971;SDS011;52726;48.852;9.152;2024-03-17T09:22:06;6.10;;;4.32;;
65971;SDS011;52726;48.852;9.152;2024-03-17T09:24:31;7.50;;;4.05;;
65971;SDS011;52726;48.852;9.152;2024-03-17T09:26:56;5.68;;;4.20;;
65971;SDS011;52726;48.852;9.152;2024-03-17T09:29:22;9.07;;;4.30;;
65971;SDS011;52726;48.852;9.152;2024-03-17T09:31:47;5.80;;;4.00;;
65971;SDS011;52726;48.852;9.152;2024-03-17T09:34:14;6.05;;;3.60;;
65971;SDS011;52726;48.852;9.152;2024-03-17T09:36:40;6.07;;;4.20;;
65971;SDS011;52726;48.852;9.152;2024-03-17T09:39:05;5.65;;;3.33;;
65971;SDS011;52726;48.852;9.152;2024-03-17T09:41:31;5.55;;;3.70;;
65971;SDS011;52726;48.852;9.152;2024-03-17T09:43:57;6.43;;;4.10;;
65971;SDS011;52726;48.852;9.152;2024-03-17T09:46:23;5.07;;;3.85;;
65971;SDS011;52726;48.852;9.152;2024-03-17T09:48:51;5.63;;;3.33;;
65971;SDS011;52726;48.852;9.152;2024-03-17T09:51:20;4.38;;;3.42;;
65971;SDS011;52726;48.852;9.152;2024-03-17T09:53:47;4.72;;;3.35;;
65971;SDS011;52726;48.852;9.152;2024-03-17T09:56:14;5.22;;;3.17;;
65971;SDS011;52726;48.852;9.152;2024-03-17T09:58:44;4.88;;;2.83;;
65971;SDS011;52726;48.852;9.152;2024-03-17T10:01:10;7.85;;;3.75;;
65971;SDS011;52726;48.852;9.152;2024-03-17T10:03:40;5.18;;;2.63;;
65971;SDS011;52726;48.852;9.152;2024-03-17T10:06:06;4.55;;;3.35;;
65971;SDS011;52726;48.852;9.152;2024-03-17T10:08:32;3.92;;;2.78;;
65971;SDS011;52726;48.852;9.152;2024-03-17T10:10:59;3.20;;;2.60;;
65971;SDS011;52726;48.852;9.152;2024-03-17T10:13:24;2.45;;;2.25;;
65971;SDS011;52726;48.852;9.152;2024-03-17T10:15:50;4.60;;;3.00;;
65971;SDS011;52726;48.852;9.152;2024-03-17T10:18:21;3.22;;;2.40;;
65971;SDS011;52726;48.852;9.152;2024-03-17T10:20:50;4.65;;;2.10;;
65971;SDS011;52726;48.852;9.152;2024-03-17T10:23:22;4.40;;;2.35;;
65971;SDS011;52726;48.852;9.152;2024-03-17T10:25:48;3.28;;;2.10;;
65971;SDS011;52726;48.852;9.152;2024-03-17T10:28:14;2.38;;;2.05;;
65971;SDS011;52726;48.852;9.152;2024-03-17T10:30:41;3.40;;;2.00;;
65971;SDS011;52726;48.852;9.152;2024-03-17T10:33:07;3.47;;;1.83;;
65971;SDS011;52726;48.852;9.152;2024-03-17T10:35:47;1.95;;;1.75;;
65971;SDS011;52726;48.852;9.152;2024-03-17T10:38:12;2.10;;;1.90;;
65971;SDS011;52726;48.852;9.152;2024-03-17T10:40:38;2.00;;;1.77;;
65971;SDS011;52726;48.852;9.152;2024-03-17T10:43:05;1.95;;;1.77;;
65971;SDS011;52726;48.852;9.152;2024-03-17T10:45:31;4.40;;;1.95;;
65971;SDS011;52726;48.852;9.152;2024-03-17T10:48:06;3.60;;;2.63;;
65971;SDS011;52726;48.852;9.152;2024-03-17T10:50:37;4.72;;;2.55;;
65971;SDS011;52726;48.852;9.152;2024-03-17T10:53:05;2.35;;;2.15;;
65971;SDS011;52726;48.852;9.152;2024-03-17T10:55:40;2.63;;;2.13;;
65971;SDS011;52726;48.852;9.152;2024-03-17T10:58:22;2.67;;;2.00;;
65971;SDS011;52726;48.852;9.152;2024-03-17T11:00:58;3.08;;;2.00;;
65971;SDS011;52726;48.852;9.152;2024-03-17T11:03:27;3.38;;;2.40;;
65971;SDS011;52726;48.852;9.152;2024-03-17T11:05:55;2.72;;;2.35;;
65971;SDS011;52726;48.852;9.152;2024-03-17T11:08:21;6.22;;;2.50;;
65971;SDS011;52726;48.852;9.152;2024-03-17T11:10:50;3.92;;;2.28;;
65971;SDS011;52726;48.852;9.152;2024-03-17T11:13:27;3.88;;;2.50;;
65971;SDS011;52726;48.852;9.152;2024-03-17T11:15:53;3.60;;;2.60;;
65971;SDS011;52726;48.852;9.152;2024-03-17T11:20:57;2.88;;;2.00;;
65971;SDS011;52726;48.852;9.152;2024-03-17T11:23:26;6.05;;;2.63;;
65971;SDS011;52726;48.852;9.152;2024-03-17T11:25:54;3.35;;;1.98;;
65971;SDS011;52726;48.852;9.152;2024-03-17T11:34:05;2.10;;;1.90;;
65971;SDS011;52726;48.852;9.152;2024-03-17T11:36:38;3.63;;;2.58;;
65971;SDS011;52726;48.852;9.152;2024-03-17T11:39:05;2.28;;;2.08;;
65971;SDS011;52726;48.852;9.152;2024-03-17T11:41:43;4.05;;;2.17;;
65971;SDS011;52726;48.852;9.152;2024-03-17T11:47:01;4.28;;;2.08;;
65971;SDS011;52726;48.852;9.152;2024-03-17T11:49:35;3.60;;;2.40;;
65971;SDS011;52726;48.852;9.152;2024-03-17T11:52:05;2.88;;;2.10;;
65971;SDS011;52726;48.852;9.152;2024-03-17T11:54:34;2.55;;;2.00;;
65971;SDS011;52726;48.852;9.152;2024-03-17T11:57:06;3.15;;;2.58;;
65971;SDS011;52726;48.852;9.152;2024-03-17T11:59:32;2.55;;;2.17;;
65971;SDS011;52726;48.852;9.152;2024-03-17T12:01:58;3.92;;;2.42;;
65971;SDS011;52726;48.852;9.152;2024-03-17T12:04:24;4.30;;;2.50;;
65971;SDS011;52726;48.852;9.152;2024-03-17T12:06:51;2.92;;;1.98;;
65971;SDS011;52726;48.852;9.152;2024-03-17T12:09:18;2.35;;;2.10;;
65971;SDS011;52726;48.852;9.152;2024-03-17T12:14:30;3.15;;;2.20;;
65971;SDS011;52726;48.852;9.152;2024-03-17T12:16:56;3.08;;;2.13;;
65971;SDS011;52726;48.852;9.152;2024-03-17T12:19:23;4.07;;;2.22;;
65971;SDS011;52726;48.852;9.152;2024-03-17T12:21:53;2.53;;;2.00;;
65971;SDS011;52726;48.852;9.152;2024-03-17T12:24:19;3.80;;;1.88;;
65971;SDS011;52726;48.852;9.152;2024-03-17T12:26:47;4.88;;;2.38;;
65971;SDS011;52726;48.852;9.152;2024-03-17T12:29:22;5.53;;;2.70;;
65971;SDS011;52726;48.852;9.152;2024-03-17T12:31:52;3.17;;;2.05;;
65971;SDS011;52726;48.852;9.152;2024-03-17T12:34:19;2.75;;;2.15;;
65971;SDS011;52726;48.852;9.152;2024-03-17T12:36:46;3.03;;;2.53;;
65971;SDS011;52726;48.852;9.152;2024-03-17T12:39:22;3.28;;;2.55;;
65971;SDS011;52726;48.852;9.152;2024-03-17T12:44:32;3.00;;;2.25;;
65971;SDS011;52726;48.852;9.152;2024-03-17T12:46:59;2.83;;;1.90;;
65971;SDS011;52726;48.852;9.152;2024-03-17T12:49:29;2.15;;;1.95;;
65971;SDS011;52726;48.852;9.152;2024-03-17T12:51:56;4.00;;;2.13;;
65971;SDS011;52726;48.852;9.152;2024-03-17T12:54:25;3.53;;;2.25;;
65971;SDS011;52726;48.852;9.152;2024-03-17T12:56:51;3.38;;;2.30;;
65971;SDS011;52726;48.852;9.152;2024-03-17T12:59:47;4.07;;;2.30;;
65971;SDS011;52726;48.852;9.152;2024-03-17T13:02:31;2.83;;;2.03;;
65971;SDS011;52726;48.852;9.152;2024-03-17T13:07:31;3.45;;;2.50;;
65971;SDS011;52726;48.852;9.152;2024-03-17T13:09:56;2.03;;;1.83;;
65971;SDS011;52726;48.852;9.152;2024-03-17T13:12:22;2.45;;;2.00;;
65971;SDS011;52726;48.852;9.152;2024-03-17T13:14:47;2.75;;;2.45;;
65971;SDS011;52726;48.852;9.152;2024-03-17T13:17:14;4.15;;;2.28;;
65971;SDS011;52726;48.852;9.152;2024-03-17T13:19:47;2.60;;;1.77;;
65971;SDS011;52726;48.852;9.152;2024-03-17T13:22:12;3.53;;;1.92;;
65971;SDS011;52726;48.852;9.152;2024-03-17T13:24:38;2.88;;;2.17;;
65971;SDS011;52726;48.852;9.152;2024-03-17T13:27:04;6.45;;;2.53;;
65971;SDS011;52726;48.852;9.152;2024-03-17T13:29:31;5.88;;;2.50;;
65971;SDS011;52726;48.852;9.152;2024-03-17T13:32:03;3.53;;;2.45;;
65971;SDS011;52726;48.852;9.152;2024-03-17T13:34:30;2.28;;;2.08;;
65971;SDS011;52726;48.852;9.152;2024-03-17T13:36:58;3.20;;;2.20;;
65971;SDS011;52726;48.852;9.152;2024-03-17T13:39:31;2.60;;;1.92;;
65971;SDS011;52726;48.852;9.152;2024-03-17T13:41:58;3.22;;;2.17;;
65971;SDS011;52726;48.852;9.152;2024-03-17T13:44:28;2.78;;;2.00;;
65971;SDS011;52726;48.852;9.152;2024-03-17T13:46:57;3.30;;;2.30;;
65971;SDS011;52726;48.852;9.152;2024-03-17T13:49:29;2.85;;;2.15;;
65971;SDS011;52726;48.852;9.152;2024-03-17T13:51:55;3.08;;;2.35;;
65971;SDS011;52726;48.852;9.152;2024-03-17T13:54:20;3.75;;;1.95;;
65971;SDS011;52726;48.852;9.152;2024-03-17T13:56:49;3.50;;;2.20;;
65971;SDS011;52726;48.852;9.152;2024-03-17T13:59:15;2.42;;;2.03;;
65971;SDS011;52726;48.852;9.152;2024-03-17T14:01:41;3.10;;;2.50;;
65971;SDS011;52726;48.852;9.152;2024-03-17T14:04:12;4.40;;;2.45;;
65971;SDS011;52726;48.852;9.152;2024-03-17T14:06:40;2.85;;;2.15;;
65971;SDS011;52726;48.852;9.152;2024-03-17T14:09:06;2.83;;;2.05;;
65971;SDS011;52726;48.852;9.152;2024-03-17T14:11:34;6.47;;;2.95;;
65971;SDS011;52726;48.852;9.152;2024-03-17T14:14:00;2.95;;;2.10;;
65971;SDS011;52726;48.852;9.152;2024-03-17T14:16:25;2.88;;;2.13;;
65971;SDS011;52726;48.852;9.152;2024-03-17T14:18:50;3.80;;;2.08;;
65971;SDS011;52726;48.852;9.152;2024-03-17T14:21:16;2.22;;;2.03;;
65971;SDS011;52726;48.852;9.152;2024-03-17T14:23:41;3.67;;;2.03;;
65971;SDS011;52726;48.852;9.152;2024-03-17T14:26:08;3.28;;;2.50;;
65971;SDS011;52726;48.852;9.152;2024-03-17T14:28:34;3.78;;;2.28;;
65971;SDS011;52726;48.852;9.152;2024-03-17T14:31:00;3.47;;;2.42;;
65971;SDS011;52726;48.852;9.152;2024-03-17T14:33:26;3.88;;;2.50;;
65971;SDS011;52726;48.852;9.152;2024-03-17T14:35:57;3.38;;;2.13;;
65971;SDS011;52726;48.852;9.152;2024-03-17T14:38:22;4.07;;;2.33;;
65971;SDS011;52726;48.852;9.152;2024-03-17T14:40:50;5.80;;;2.15;;
65971;SDS011;52726;48.852;9.152;2024-03-17T14:43:16;3.40;;;2.42;;
65971;SDS011;52726;48.852;9.152;2024-03-17T14:45:42;3.10;;;2.40;;
65971;SDS011;52726;48.852;9.152;2024-03-17T14:48:07;4.53;;;2.33;;
65971;SDS011;52726;48.852;9.152;2024-03-17T14:50:34;4.13;;;1.73;;
65971;SDS011;52726;48.852;9.152;2024-03-17T14:53:00;2.17;;;1.90;;
65971;SDS011;52726;48.852;9.152;2024-03-17T14:55:25;3.67;;;2.00;;
65971;SDS011;52726;48.852;9.152;2024-03-17T14:57:50;3.70;;;2.22;;
65971;SDS011;52726;48.852;9.152;2024-03-17T15:00:16;3.17;;;2.22;;
65971;SDS011;52726;48.852;9.152;2024-03-17T15:02:45;3.13;;;2.00;;
65971;SDS011;52726;48.852;9.152;2024-03-17T15:05:12;3.90;;;2.08;;